sensor_id;sensor_type;location;lat;lon;timestamp;temperature;humidity
63899;HTU21D;50070;-32.946;-60.652;2022-09-01T00:02:13;22.83;49.21
63899;HTU21D;50070;-32.946;-60.652;2022-09-01T00:04:44;22.73;49.56
63899;HTU21D;50070;-32.946;-60.652;2022-09-01T00:07:11;22.71;49.70
63899;HTU21D;50070;-32.946;-60.652;2022-09-01T00:09:38;22.76;49.60
63899;HTU21D;50070;-32.946;-60.652;2022-09-01T00:12:08;22.84;49.38
63899;HTU21D;50070;-32.946;-60.652;2022-09-01T00:14:38;22.71;49.69
63899;HTU21D;50070;-32.946;-60.652;2022-09-01T00:17:08;22.69;49.83
63899;HTU21D;50070;-32.946;-60.652;2022-09-01T00:19:38;22.72;49.74
63899;HTU21D;50070;-32.946;-60.652;2022-09-01T00:22:09;22.65;49.92
63899;HTU21D;50070;-32.946;-60.652;2022-09-01T00:24:37;22.54;50.33
63899;HTU21D;50070;-32.946;-60.652;2022-09-01T00:27:04;22.37;50.83
63899;HTU21D;50070;-32.946;-60.652;2022-09-01T00:29:31;22.43;50.64
63899;HTU21D;50070;-32.946;-60.652;2022-09-01T00:31:58;22.48;50.54
63899;HTU21D;50070;-32.946;-60.652;2022-09-01T00:34:25;22.60;50.22
63899;HTU21D;50070;-32.946;-60.652;2022-09-01T00:36:52;22.50;50.59
63899;HTU21D;50070;-32.946;-60.652;2022-09-01T00:39:19;22.42;50.96
63899;HTU21D;50070;-32.946;-60.652;2022-09-01T00:41:46;22.39;51.01
63899;HTU21D;50070;-32.946;-60.652;2022-09-01T00:44:18;22.39;51.13
63899;HTU21D;50070;-32.946;-60.652;2022-09-01T00:46:50;22.49;50.95
63899;HTU21D;50070;-32.946;-60.652;2022-09-01T00:49:26;22.36;51.47
63899;HTU21D;50070;-32.946;-60.652;2022-09-01T00:52:01;22.25;51.85
63899;HTU21D;50070;-32.946;-60.652;2022-09-01T00:54:35;22.09;52.52
63899;HTU21D;50070;-32.946;-60.652;2022-09-01T00:57:06;22.04;52.78
63899;HTU21D;50070;-32.946;-60.652;2022-09-01T00:59:35;21.99;52.83
63899;HTU21D;50070;-32.946;-60.652;2022-09-01T01:02:04;21.94;53.06
63899;HTU21D;50070;-32.946;-60.652;2022-09-01T01:04:31;21.87;53.30
63899;HTU21D;50070;-32.946;-60.652;2022-09-01T01:07:01;21.46;54.60
63899;HTU21D;50070;-32.946;-60.652;2022-09-01T01:09:31;21.47;54.76
63899;HTU21D;50070;-32.946;-60.652;2022-09-01T01:12:01;21.49;54.67
63899;HTU21D;50070;-32.946;-60.652;2022-09-01T01:14:29;21.30;55.33
63899;HTU21D;50070;-32.946;-60.652;2022-09-01T01:16:59;21.01;56.28
63899;HTU21D;50070;-32.946;-60.652;2022-09-01T01:19:45;21.07;56.08
63899;HTU21D;50070;-32.946;-60.652;2022-09-01T01:25:52;21.05;56.06
63899;HTU21D;50070;-32.946;-60.652;2022-09-01T01:28:27;20.85;56.76
63899;HTU21D;50070;-32.946;-60.652;2022-09-01T01:31:10;21.05;56.00
63899;HTU21D;50070;-32.946;-60.652;2022-09-01T01:33:40;20.79;57.00
63899;HTU21D;50070;-32.946;-60.652;2022-09-01T01:36:14;20.84;56.92
63899;HTU21D;50070;-32.946;-60.652;2022-09-01T01:38:43;20.76;57.08
63899;HTU21D;50070;-32.946;-60.652;2022-09-01T01:41:13;20.65;57.43
63899;HTU21D;50070;-32.946;-60.652;2022-09-01T01:43:40;20.63;57.47
63899;HTU21D;50070;-32.946;-60.652;2022-09-01T01:46:09;20.65;57.47
63899;HTU21D;50070;-32.946;-60.652;2022-09-01T01:48:38;20.66;57.46
63899;HTU21D;50070;-32.946;-60.652;2022-09-01T01:51:08;20.75;57.07
63899;HTU21D;50070;-32.946;-60.652;2022-09-01T01:53:36;20.58;57.64
63899;HTU21D;50070;-32.946;-60.652;2022-09-01T01:56:04;20.71;57.21
63899;HTU21D;50070;-32.946;-60.652;2022-09-01T01:58:32;20.63;57.50
63899;HTU21D;50070;-32.946;-60.652;2022-09-01T02:00:59;20.45;58.22
63899;HTU21D;50070;-32.946;-60.652;2022-09-01T02:03:31;20.58;57.79
63899;HTU21D;50070;-32.946;-60.652;2022-09-01T02:06:06;20.37;58.51
63899;HTU21D;50070;-32.946;-60.652;2022-09-01T02:08:36;20.43;58.36
63899;HTU21D;50070;-32.946;-60.652;2022-09-01T02:11:05;20.29;58.83
63899;HTU21D;50070;-32.946;-60.652;2022-09-01T02:13:32;20.47;58.29
63899;HTU21D;50070;-32.946;-60.652;2022-09-01T02:16:03;20.42;58.43
63899;HTU21D;50070;-32.946;-60.652;2022-09-01T02:18:44;20.33;58.62
63899;HTU21D;50070;-32.946;-60.652;2022-09-01T02:21:17;20.24;59.01
63899;HTU21D;50070;-32.946;-60.652;2022-09-01T02:23:58;20.34;58.60
63899;HTU21D;50070;-32.946;-60.652;2022-09-01T02:26:34;20.15;59.25
63899;HTU21D;50070;-32.946;-60.652;2022-09-01T02:29:06;20.13;59.28
63899;HTU21D;50070;-32.946;-60.652;2022-09-01T02:31:35;20.03;59.67
63899;HTU21D;50070;-32.946;-60.652;2022-09-01T02:34:07;20.14;59.25
63899;HTU21D;50070;-32.946;-60.652;2022-09-01T02:36:45;19.98;59.80
63899;HTU21D;50070;-32.946;-60.652;2022-09-01T02:39:15;19.90;60.01
63899;HTU21D;50070;-32.946;-60.652;2022-09-01T02:41:42;19.85;60.31
63899;HTU21D;50070;-32.946;-60.652;2022-09-01T02:44:10;19.86;60.18
63899;HTU21D;50070;-32.946;-60.652;2022-09-01T02:46:44;19.81;60.35
63899;HTU21D;50070;-32.946;-60.652;2022-09-01T02:49:15;19.88;60.19
63899;HTU21D;50070;-32.946;-60.652;2022-09-01T02:51:49;19.80;60.58
63899;HTU21D;50070;-32.946;-60.652;2022-09-01T02:54:20;19.86;60.38
63899;HTU21D;50070;-32.946;-60.652;2022-09-01T02:56:50;19.92;60.29
63899;HTU21D;50070;-32.946;-60.652;2022-09-01T02:59:22;19.92;60.35
63899;HTU21D;50070;-32.946;-60.652;2022-09-01T03:01:51;19.68;61.30
63899;HTU21D;50070;-32.946;-60.652;2022-09-01T03:04:20;19.53;61.84
63899;HTU21D;50070;-32.946;-60.652;2022-09-01T03:06:47;19.55;61.87
63899;HTU21D;50070;-32.946;-60.652;2022-09-01T03:09:17;19.57;61.90
63899;HTU21D;50070;-32.946;-60.652;2022-09-01T03:11:48;19.62;61.63
63899;HTU21D;50070;-32.946;-60.652;2022-09-01T03:14:16;19.89;60.73
63899;HTU21D;50070;-32.946;-60.652;2022-09-01T03:16:43;19.73;61.25
63899;HTU21D;50070;-32.946;-60.652;2022-09-01T03:19:10;19.75;61.31
63899;HTU21D;50070;-32.946;-60.652;2022-09-01T03:21:38;19.74;61.39
63899;HTU21D;50070;-32.946;-60.652;2022-09-01T03:24:13;19.65;61.70
63899;HTU21D;50070;-32.946;-60.652;2022-09-01T03:26:41;19.80;61.15
63899;HTU21D;50070;-32.946;-60.652;2022-09-01T03:29:09;19.72;61.37
63899;HTU21D;50070;-32.946;-60.652;2022-09-01T03:31:36;19.79;61.12
63899;HTU21D;50070;-32.946;-60.652;2022-09-01T03:34:03;19.74;61.33
63899;HTU21D;50070;-32.946;-60.652;2022-09-01T03:36:33;19.76;61.21
63899;HTU21D;50070;-32.946;-60.652;2022-09-01T03:39:03;19.53;62.12
63899;HTU21D;50070;-32.946;-60.652;2022-09-01T03:41:30;19.68;61.60
63899;HTU21D;50070;-32.946;-60.652;2022-09-01T03:43:58;19.68;61.62
63899;HTU21D;50070;-32.946;-60.652;2022-09-01T03:46:26;19.62;61.96
63899;HTU21D;50070;-32.946;-60.652;2022-09-01T03:48:58;19.50;62.35
63899;HTU21D;50070;-32.946;-60.652;2022-09-01T03:51:27;19.61;62.02
63899;HTU21D;50070;-32.946;-60.652;2022-09-01T03:53:56;19.58;62.13
63899;HTU21D;50070;-32.946;-60.652;2022-09-01T03:56:25;19.70;61.71
63899;HTU21D;50070;-32.946;-60.652;2022-09-01T03:58:55;19.51;62.39
63899;HTU21D;50070;-32.946;-60.652;2022-09-01T04:01:24;19.38;62.84
63899;HTU21D;50070;-32.946;-60.652;2022-09-01T04:03:51;19.36;63.03
63899;HTU21D;50070;-32.946;-60.652;2022-09-01T04:06:18;19.38;62.94
63899;HTU21D;50070;-32.946;-60.652;2022-09-01T04:08:49;19.42;62.88
63899;HTU21D;50070;-32.946;-60.652;2022-09-01T04:11:20;19.65;61.99
63899;HTU21D;50070;-32.946;-60.652;2022-09-01T04:13:49;19.55;62.34
63899;HTU21D;50070;-32.946;-60.652;2022-09-01T04:16:22;19.45;62.93
63899;HTU21D;50070;-32.946;-60.652;2022-09-01T04:19:08;19.66;62.05
63899;HTU21D;50070;-32.946;-60.652;2022-09-01T04:21:57;19.68;62.13
63899;HTU21D;50070;-32.946;-60.652;2022-09-01T04:24:29;19.40;63.08
63899;HTU21D;50070;-32.946;-60.652;2022-09-01T04:26:59;19.37;63.34
63899;HTU21D;50070;-32.946;-60.652;2022-09-01T04:29:28;19.39;63.22
63899;HTU21D;50070;-32.946;-60.652;2022-09-01T04:32:07;19.41;63.21
63899;HTU21D;50070;-32.946;-60.652;2022-09-01T04:34:37;19.28;63.58
63899;HTU21D;50070;-32.946;-60.652;2022-09-01T04:37:17;19.38;63.37
63899;HTU21D;50070;-32.946;-60.652;2022-09-01T04:39:54;19.46;62.91
63899;HTU21D;50070;-32.946;-60.652;2022-09-01T04:42:23;19.54;62.76
63899;HTU21D;50070;-32.946;-60.652;2022-09-01T04:44:51;19.24;63.86
63899;HTU21D;50070;-32.946;-60.652;2022-09-01T04:47:18;19.23;64.06
63899;HTU21D;50070;-32.946;-60.652;2022-09-01T04:49:55;19.20;64.14
63899;HTU21D;50070;-32.946;-60.652;2022-09-01T04:52:25;19.30;63.85
63899;HTU21D;50070;-32.946;-60.652;2022-09-01T04:54:52;19.43;63.39
63899;HTU21D;50070;-32.946;-60.652;2022-09-01T04:57:20;19.40;63.61
63899;HTU21D;50070;-32.946;-60.652;2022-09-01T04:59:47;19.30;63.95
63899;HTU21D;50070;-32.946;-60.652;2022-09-01T05:02:15;19.22;64.19
63899;HTU21D;50070;-32.946;-60.652;2022-09-01T05:04:42;19.17;64.44
63899;HTU21D;50070;-32.946;-60.652;2022-09-01T05:07:10;19.06;64.83
63899;HTU21D;50070;-32.946;-60.652;2022-09-01T05:09:39;19.10;64.79
63899;HTU21D;50070;-32.946;-60.652;2022-09-01T05:12:06;19.22;64.30
63899;HTU21D;50070;-32.946;-60.652;2022-09-01T05:14:38;19.36;63.74
63899;HTU21D;50070;-32.946;-60.652;2022-09-01T05:17:07;19.27;64.05
63899;HTU21D;50070;-32.946;-60.652;2022-09-01T05:19:37;18.93;65.40
63899;HTU21D;50070;-32.946;-60.652;2022-09-01T05:22:06;18.94;65.46
63899;HTU21D;50070;-32.946;-60.652;2022-09-01T05:24:36;19.08;64.87
63899;HTU21D;50070;-32.946;-60.652;2022-09-01T05:27:06;19.07;64.82
63899;HTU21D;50070;-32.946;-60.652;2022-09-01T05:29:33;18.97;65.37
63899;HTU21D;50070;-32.946;-60.652;2022-09-01T05:32:03;19.09;64.90
63899;HTU21D;50070;-32.946;-60.652;2022-09-01T05:34:33;19.03;65.04
63899;HTU21D;50070;-32.946;-60.652;2022-09-01T05:37:03;19.23;64.56
63899;HTU21D;50070;-32.946;-60.652;2022-09-01T05:39:31;19.25;64.36
63899;HTU21D;50070;-32.946;-60.652;2022-09-01T05:41:59;19.09;64.98
63899;HTU21D;50070;-32.946;-60.652;2022-09-01T05:44:26;19.14;64.89
63899;HTU21D;50070;-32.946;-60.652;2022-09-01T05:46:53;19.01;65.38
63899;HTU21D;50070;-32.946;-60.652;2022-09-01T05:49:22;19.15;64.85
63899;HTU21D;50070;-32.946;-60.652;2022-09-01T05:51:50;19.16;64.91
63899;HTU21D;50070;-32.946;-60.652;2022-09-01T05:54:24;19.41;64.01
63899;HTU21D;50070;-32.946;-60.652;2022-09-01T05:56:55;19.35;64.24
63899;HTU21D;50070;-32.946;-60.652;2022-09-01T05:59:23;19.24;64.68
63899;HTU21D;50070;-32.946;-60.652;2022-09-01T06:01:52;19.35;64.34
63899;HTU21D;50070;-32.946;-60.652;2022-09-01T06:04:19;19.14;65.08
63899;HTU21D;50070;-32.946;-60.652;2022-09-01T06:06:48;19.01;65.56
63899;HTU21D;50070;-32.946;-60.652;2022-09-01T06:09:16;19.12;65.27
63899;HTU21D;50070;-32.946;-60.652;2022-09-01T06:11:48;19.23;64.90
63899;HTU21D;50070;-32.946;-60.652;2022-09-01T06:14:16;19.05;65.53
63899;HTU21D;50070;-32.946;-60.652;2022-09-01T06:16:43;18.89;66.13
63899;HTU21D;50070;-32.946;-60.652;2022-09-01T06:19:12;19.14;65.23
63899;HTU21D;50070;-32.946;-60.652;2022-09-01T06:21:39;19.09;65.40
63899;HTU21D;50070;-32.946;-60.652;2022-09-01T06:24:06;19.29;64.79
63899;HTU21D;50070;-32.946;-60.652;2022-09-01T06:26:35;19.25;65.04
63899;HTU21D;50070;-32.946;-60.652;2022-09-01T06:29:06;19.24;65.04
63899;HTU21D;50070;-32.946;-60.652;2022-09-01T06:31:35;19.18;65.26
63899;HTU21D;50070;-32.946;-60.652;2022-09-01T06:34:07;19.20;65.36
63899;HTU21D;50070;-32.946;-60.652;2022-09-01T06:36:37;19.39;64.60
63899;HTU21D;50070;-32.946;-60.652;2022-09-01T06:39:06;19.42;64.43
63899;HTU21D;50070;-32.946;-60.652;2022-09-01T06:41:33;19.25;65.11
63899;HTU21D;50070;-32.946;-60.652;2022-09-01T06:43:59;19.26;65.19
63899;HTU21D;50070;-32.946;-60.652;2022-09-01T06:46:27;19.31;65.08
63899;HTU21D;50070;-32.946;-60.652;2022-09-01T06:48:55;19.46;64.53
63899;HTU21D;50070;-32.946;-60.652;2022-09-01T06:51:25;19.45;64.61
63899;HTU21D;50070;-32.946;-60.652;2022-09-01T06:53:54;19.54;64.43
63899;HTU21D;50070;-32.946;-60.652;2022-09-01T06:56:22;19.54;64.30
63899;HTU21D;50070;-32.946;-60.652;2022-09-01T06:58:53;19.39;64.88
63899;HTU21D;50070;-32.946;-60.652;2022-09-01T07:01:20;19.51;64.58
63899;HTU21D;50070;-32.946;-60.652;2022-09-01T07:03:50;19.33;65.27
63899;HTU21D;50070;-32.946;-60.652;2022-09-01T07:06:19;19.58;64.39
63899;HTU21D;50070;-32.946;-60.652;2022-09-01T07:08:49;19.66;63.95
63899;HTU21D;50070;-32.946;-60.652;2022-09-01T07:11:21;19.71;63.92
63899;HTU21D;50070;-32.946;-60.652;2022-09-01T07:13:57;19.76;63.78
63899;HTU21D;50070;-32.946;-60.652;2022-09-01T07:16:29;19.87;63.29
63899;HTU21D;50070;-32.946;-60.652;2022-09-01T07:18:57;19.77;63.74
63899;HTU21D;50070;-32.946;-60.652;2022-09-01T07:21:28;19.80;63.71
63899;HTU21D;50070;-32.946;-60.652;2022-09-01T07:23:56;19.70;64.07
63899;HTU21D;50070;-32.946;-60.652;2022-09-01T07:26:27;19.56;64.75
63899;HTU21D;50070;-32.946;-60.652;2022-09-01T07:28:54;19.82;63.76
63899;HTU21D;50070;-32.946;-60.652;2022-09-01T07:31:29;19.79;63.90
63899;HTU21D;50070;-32.946;-60.652;2022-09-01T07:33:59;19.88;63.58
63899;HTU21D;50070;-32.946;-60.652;2022-09-01T07:36:26;19.75;64.14
63899;HTU21D;50070;-32.946;-60.652;2022-09-01T07:38:53;19.86;63.62
63899;HTU21D;50070;-32.946;-60.652;2022-09-01T07:41:24;19.80;63.96
63899;HTU21D;50070;-32.946;-60.652;2022-09-01T07:43:52;19.80;64.03
63899;HTU21D;50070;-32.946;-60.652;2022-09-01T07:46:21;19.52;65.06
63899;HTU21D;50070;-32.946;-60.652;2022-09-01T07:48:51;19.71;64.40
63899;HTU21D;50070;-32.946;-60.652;2022-09-01T07:51:20;19.61;64.69
63899;HTU21D;50070;-32.946;-60.652;2022-09-01T07:53:48;19.66;64.48
63899;HTU21D;50070;-32.946;-60.652;2022-09-01T07:56:20;19.61;64.73
63899;HTU21D;50070;-32.946;-60.652;2022-09-01T07:58:49;19.75;64.32
63899;HTU21D;50070;-32.946;-60.652;2022-09-01T08:01:19;19.60;64.76
63899;HTU21D;50070;-32.946;-60.652;2022-09-01T08:03:48;19.42;65.51
63899;HTU21D;50070;-32.946;-60.652;2022-09-01T08:06:17;19.45;65.44
63899;HTU21D;50070;-32.946;-60.652;2022-09-01T08:08:47;19.63;64.82
63899;HTU21D;50070;-32.946;-60.652;2022-09-01T08:11:21;19.52;65.24
63899;HTU21D;50070;-32.946;-60.652;2022-09-01T08:13:51;19.54;65.21
63899;HTU21D;50070;-32.946;-60.652;2022-09-01T08:16:18;19.53;65.48
63899;HTU21D;50070;-32.946;-60.652;2022-09-01T08:18:45;19.51;65.33
63899;HTU21D;50070;-32.946;-60.652;2022-09-01T08:21:13;19.43;65.78
63899;HTU21D;50070;-32.946;-60.652;2022-09-01T08:23:41;19.29;66.33
63899;HTU21D;50070;-32.946;-60.652;2022-09-01T08:26:11;19.48;65.65
63899;HTU21D;50070;-32.946;-60.652;2022-09-01T08:28:39;19.27;66.53
63899;HTU21D;50070;-32.946;-60.652;2022-09-01T08:31:12;19.26;66.58
63899;HTU21D;50070;-32.946;-60.652;2022-09-01T08:33:40;19.52;65.53
63899;HTU21D;50070;-32.946;-60.652;2022-09-01T08:36:09;19.53;65.52
63899;HTU21D;50070;-32.946;-60.652;2022-09-01T08:38:37;19.20;66.78
63899;HTU21D;50070;-32.946;-60.652;2022-09-01T08:41:13;19.41;65.90
63899;HTU21D;50070;-32.946;-60.652;2022-09-01T08:47:09;19.39;65.86
63899;HTU21D;50070;-32.946;-60.652;2022-09-01T08:49:37;19.32;66.22
63899;HTU21D;50070;-32.946;-60.652;2022-09-01T08:52:29;19.27;66.55
63899;HTU21D;50070;-32.946;-60.652;2022-09-01T08:55:35;19.33;66.11
63899;HTU21D;50070;-32.946;-60.652;2022-09-01T08:58:05;19.18;66.72
63899;HTU21D;50070;-32.946;-60.652;2022-09-01T09:00:48;19.28;66.40
63899;HTU21D;50070;-32.946;-60.652;2022-09-01T09:03:40;19.22;66.62
63899;HTU21D;50070;-32.946;-60.652;2022-09-01T09:09:04;19.22;66.74
63899;HTU21D;50070;-32.946;-60.652;2022-09-01T09:14:27;19.09;67.19
63899;HTU21D;50070;-32.946;-60.652;2022-09-01T09:16:58;19.12;67.02
63899;HTU21D;50070;-32.946;-60.652;2022-09-01T09:19:29;19.11;67.04
63899;HTU21D;50070;-32.946;-60.652;2022-09-01T09:21:59;19.31;66.43
63899;HTU21D;50070;-32.946;-60.652;2022-09-01T09:25:02;19.31;66.30
63899;HTU21D;50070;-32.946;-60.652;2022-09-01T09:27:32;19.13;67.07
63899;HTU21D;50070;-32.946;-60.652;2022-09-01T09:30:03;19.20;66.92
63899;HTU21D;50070;-32.946;-60.652;2022-09-01T09:35:19;19.25;66.59
63899;HTU21D;50070;-32.946;-60.652;2022-09-01T09:37:47;19.15;67.10
63899;HTU21D;50070;-32.946;-60.652;2022-09-01T09:40:19;19.11;67.16
63899;HTU21D;50070;-32.946;-60.652;2022-09-01T09:47:56;18.88;68.39
63899;HTU21D;50070;-32.946;-60.652;2022-09-01T09:50:29;18.91;68.25
63899;HTU21D;50070;-32.946;-60.652;2022-09-01T09:53:25;18.83;68.49
63899;HTU21D;50070;-32.946;-60.652;2022-09-01T09:56:14;19.13;67.30
63899;HTU21D;50070;-32.946;-60.652;2022-09-01T09:58:44;19.03;67.71
63899;HTU21D;50070;-32.946;-60.652;2022-09-01T10:03:47;18.91;68.48
63899;HTU21D;50070;-32.946;-60.652;2022-09-01T10:06:41;18.97;68.15
63899;HTU21D;50070;-32.946;-60.652;2022-09-01T10:09:37;19.02;67.81
63899;HTU21D;50070;-32.946;-60.652;2022-09-01T10:12:04;18.89;68.42
63899;HTU21D;50070;-32.946;-60.652;2022-09-01T10:14:40;18.92;68.33
63899;HTU21D;50070;-32.946;-60.652;2022-09-01T10:17:14;18.95;68.32
63899;HTU21D;50070;-32.946;-60.652;2022-09-01T10:19:49;18.89;68.60
63899;HTU21D;50070;-32.946;-60.652;2022-09-01T10:22:19;18.89;68.50
63899;HTU21D;50070;-32.946;-60.652;2022-09-01T10:24:47;19.00;68.38
63899;HTU21D;50070;-32.946;-60.652;2022-09-01T10:27:22;19.24;67.40
63899;HTU21D;50070;-32.946;-60.652;2022-09-01T10:32:45;19.01;68.11
63899;HTU21D;50070;-32.946;-60.652;2022-09-01T10:35:32;19.07;67.94
63899;HTU21D;50070;-32.946;-60.652;2022-09-01T10:38:07;19.17;67.63
63899;HTU21D;50070;-32.946;-60.652;2022-09-01T10:40:41;19.16;67.43
63899;HTU21D;50070;-32.946;-60.652;2022-09-01T10:43:28;19.23;67.07
63899;HTU21D;50070;-32.946;-60.652;2022-09-01T10:45:59;19.29;67.06
63899;HTU21D;50070;-32.946;-60.652;2022-09-01T10:48:32;19.29;67.21
63899;HTU21D;50070;-32.946;-60.652;2022-09-01T10:53:58;19.16;67.88
63899;HTU21D;50070;-32.946;-60.652;2022-09-01T10:56:41;19.18;67.84
63899;HTU21D;50070;-32.946;-60.652;2022-09-01T10:59:10;19.09;68.20
63899;HTU21D;50070;-32.946;-60.652;2022-09-01T11:04:22;18.98;68.26
63899;HTU21D;50070;-32.946;-60.652;2022-09-01T11:07:02;19.09;68.20
63899;HTU21D;50070;-32.946;-60.652;2022-09-01T11:09:40;18.85;68.80
63899;HTU21D;50070;-32.946;-60.652;2022-09-01T11:17:59;19.30;67.43
63899;HTU21D;50070;-32.946;-60.652;2022-09-01T11:34:18;19.37;67.23
63899;HTU21D;50070;-32.946;-60.652;2022-09-01T11:39:23;19.44;66.86
63899;HTU21D;50070;-32.946;-60.652;2022-09-01T11:42:20;19.59;66.61
63899;HTU21D;50070;-32.946;-60.652;2022-09-01T11:45:02;19.68;66.04
63899;HTU21D;50070;-32.946;-60.652;2022-09-01T11:50:05;19.56;66.42
63899;HTU21D;50070;-32.946;-60.652;2022-09-01T11:52:35;19.71;65.95
63899;HTU21D;50070;-32.946;-60.652;2022-09-01T11:55:06;19.86;65.45
63899;HTU21D;50070;-32.946;-60.652;2022-09-01T11:57:38;19.82;65.65
63899;HTU21D;50070;-32.946;-60.652;2022-09-01T12:00:11;19.83;65.39
63899;HTU21D;50070;-32.946;-60.652;2022-09-01T12:02:52;19.94;65.12
63899;HTU21D;50070;-32.946;-60.652;2022-09-01T12:05:31;19.58;66.35
63899;HTU21D;50070;-32.946;-60.652;2022-09-01T12:08:01;19.38;67.30
63899;HTU21D;50070;-32.946;-60.652;2022-09-01T12:10:32;19.72;66.52
63899;HTU21D;50070;-32.946;-60.652;2022-09-01T12:15:36;19.53;66.99
63899;HTU21D;50070;-32.946;-60.652;2022-09-01T12:18:14;19.67;66.69
63899;HTU21D;50070;-32.946;-60.652;2022-09-01T12:20:45;19.68;66.69
63899;HTU21D;50070;-32.946;-60.652;2022-09-01T12:25:58;19.79;66.22
63899;HTU21D;50070;-32.946;-60.652;2022-09-01T12:28:28;19.62;66.84
63899;HTU21D;50070;-32.946;-60.652;2022-09-01T12:31:00;19.61;66.86
63899;HTU21D;50070;-32.946;-60.652;2022-09-01T12:33:28;19.56;66.99
63899;HTU21D;50070;-32.946;-60.652;2022-09-01T12:36:17;19.48;67.07
63899;HTU21D;50070;-32.946;-60.652;2022-09-01T12:38:45;19.41;67.55
63899;HTU21D;50070;-32.946;-60.652;2022-09-01T12:41:33;19.52;67.05
63899;HTU21D;50070;-32.946;-60.652;2022-09-01T12:44:25;19.38;67.68
63899;HTU21D;50070;-32.946;-60.652;2022-09-01T12:46:53;19.27;68.07
63899;HTU21D;50070;-32.946;-60.652;2022-09-01T12:49:33;19.48;67.31
63899;HTU21D;50070;-32.946;-60.652;2022-09-01T12:52:12;19.61;66.72
63899;HTU21D;50070;-32.946;-60.652;2022-09-01T12:55:07;19.68;66.45
63899;HTU21D;50070;-32.946;-60.652;2022-09-01T12:57:37;19.74;66.36
63899;HTU21D;50070;-32.946;-60.652;2022-09-01T13:03:10;19.89;65.90
63899;HTU21D;50070;-32.946;-60.652;2022-09-01T13:05:50;19.83;66.10
63899;HTU21D;50070;-32.946;-60.652;2022-09-01T13:08:20;19.81;66.17
63899;HTU21D;50070;-32.946;-60.652;2022-09-01T13:10:49;19.88;65.94
63899;HTU21D;50070;-32.946;-60.652;2022-09-01T13:13:19;19.59;66.88
63899;HTU21D;50070;-32.946;-60.652;2022-09-01T13:15:49;19.29;67.85
63899;HTU21D;50070;-32.946;-60.652;2022-09-01T13:18:17;19.23;68.22
63899;HTU21D;50070;-32.946;-60.652;2022-09-01T13:20:44;19.31;68.13
63899;HTU21D;50070;-32.946;-60.652;2022-09-01T13:23:11;19.12;68.74
63899;HTU21D;50070;-32.946;-60.652;2022-09-01T13:25:39;19.12;68.78
63899;HTU21D;50070;-32.946;-60.652;2022-09-01T13:28:09;19.15;68.76
63899;HTU21D;50070;-32.946;-60.652;2022-09-01T13:30:37;19.26;68.23
63899;HTU21D;50070;-32.946;-60.652;2022-09-01T13:33:05;19.08;68.91
63899;HTU21D;50070;-32.946;-60.652;2022-09-01T13:35:32;19.14;68.97
63899;HTU21D;50070;-32.946;-60.652;2022-09-01T13:37:59;19.32;68.34
63899;HTU21D;50070;-32.946;-60.652;2022-09-01T13:40:26;19.44;67.90
63899;HTU21D;50070;-32.946;-60.652;2022-09-01T13:42:53;19.24;68.55
63899;HTU21D;50070;-32.946;-60.652;2022-09-01T13:45:22;19.23;68.68
63899;HTU21D;50070;-32.946;-60.652;2022-09-01T13:47:52;19.27;68.32
63899;HTU21D;50070;-32.946;-60.652;2022-09-01T13:50:21;19.43;67.98
63899;HTU21D;50070;-32.946;-60.652;2022-09-01T13:52:53;19.41;68.11
63899;HTU21D;50070;-32.946;-60.652;2022-09-01T13:55:24;19.39;68.13
63899;HTU21D;50070;-32.946;-60.652;2022-09-01T13:57:51;19.61;67.33
63899;HTU21D;50070;-32.946;-60.652;2022-09-01T14:00:20;19.45;68.04
63899;HTU21D;50070;-32.946;-60.652;2022-09-01T14:02:52;19.68;67.29
63899;HTU21D;50070;-32.946;-60.652;2022-09-01T14:05:24;19.67;67.10
63899;HTU21D;50070;-32.946;-60.652;2022-09-01T14:07:52;19.56;67.48
63899;HTU21D;50070;-32.946;-60.652;2022-09-01T14:10:21;19.62;67.30
63899;HTU21D;50070;-32.946;-60.652;2022-09-01T14:12:49;19.63;67.26
63899;HTU21D;50070;-32.946;-60.652;2022-09-01T14:15:17;19.74;66.83
63899;HTU21D;50070;-32.946;-60.652;2022-09-01T14:17:48;20.11;65.70
63899;HTU21D;50070;-32.946;-60.652;2022-09-01T14:20:19;20.04;65.81
63899;HTU21D;50070;-32.946;-60.652;2022-09-01T14:22:47;19.87;66.40
63899;HTU21D;50070;-32.946;-60.652;2022-09-01T14:25:15;20.07;65.86
63899;HTU21D;50070;-32.946;-60.652;2022-09-01T14:27:43;20.18;65.28
63899;HTU21D;50070;-32.946;-60.652;2022-09-01T14:30:14;20.29;64.68
63899;HTU21D;50070;-32.946;-60.652;2022-09-01T14:32:41;20.16;65.39
63899;HTU21D;50070;-32.946;-60.652;2022-09-01T14:35:08;20.28;64.95
63899;HTU21D;50070;-32.946;-60.652;2022-09-01T14:37:39;20.44;64.42
63899;HTU21D;50070;-32.946;-60.652;2022-09-01T14:40:07;20.57;63.95
63899;HTU21D;50070;-32.946;-60.652;2022-09-01T14:42:34;20.45;64.63
63899;HTU21D;50070;-32.946;-60.652;2022-09-01T14:45:03;20.30;64.88
63899;HTU21D;50070;-32.946;-60.652;2022-09-01T14:47:30;20.43;64.59
63899;HTU21D;50070;-32.946;-60.652;2022-09-01T14:49:57;20.47;64.21
63899;HTU21D;50070;-32.946;-60.652;2022-09-01T14:52:24;20.69;63.55
63899;HTU21D;50070;-32.946;-60.652;2022-09-01T14:54:51;20.79;63.08
63899;HTU21D;50070;-32.946;-60.652;2022-09-01T14:57:17;20.91;62.68
63899;HTU21D;50070;-32.946;-60.652;2022-09-01T14:59:44;20.70;63.34
63899;HTU21D;50070;-32.946;-60.652;2022-09-01T15:02:11;20.57;63.85
63899;HTU21D;50070;-32.946;-60.652;2022-09-01T15:04:37;20.59;63.79
63899;HTU21D;50070;-32.946;-60.652;2022-09-01T15:07:04;20.36;64.45
63899;HTU21D;50070;-32.946;-60.652;2022-09-01T15:09:32;20.37;64.50
63899;HTU21D;50070;-32.946;-60.652;2022-09-01T15:11:59;20.50;64.28
63899;HTU21D;50070;-32.946;-60.652;2022-09-01T15:14:26;20.85;63.22
63899;HTU21D;50070;-32.946;-60.652;2022-09-01T15:16:53;20.69;63.35
63899;HTU21D;50070;-32.946;-60.652;2022-09-01T15:19:20;20.81;63.18
63899;HTU21D;50070;-32.946;-60.652;2022-09-01T15:21:47;20.70;63.37
63899;HTU21D;50070;-32.946;-60.652;2022-09-01T15:24:14;20.43;64.30
63899;HTU21D;50070;-32.946;-60.652;2022-09-01T15:26:42;20.27;64.69
63899;HTU21D;50070;-32.946;-60.652;2022-09-01T15:29:10;20.13;65.21
63899;HTU21D;50070;-32.946;-60.652;2022-09-01T15:31:38;20.29;64.67
63899;HTU21D;50070;-32.946;-60.652;2022-09-01T15:34:05;20.44;64.32
63899;HTU21D;50070;-32.946;-60.652;2022-09-01T15:36:35;20.54;63.93
63899;HTU21D;50070;-32.946;-60.652;2022-09-01T15:39:02;20.80;62.98
63899;HTU21D;50070;-32.946;-60.652;2022-09-01T15:41:31;20.50;63.91
63899;HTU21D;50070;-32.946;-60.652;2022-09-01T15:44:00;20.60;63.76
63899;HTU21D;50070;-32.946;-60.652;2022-09-01T15:46:27;20.98;62.73
63899;HTU21D;50070;-32.946;-60.652;2022-09-01T15:48:58;21.00;62.56
63899;HTU21D;50070;-32.946;-60.652;2022-09-01T15:51:29;21.19;62.01
63899;HTU21D;50070;-32.946;-60.652;2022-09-01T15:54:04;21.35;61.60
63899;HTU21D;50070;-32.946;-60.652;2022-09-01T15:56:31;21.33;61.54
63899;HTU21D;50070;-32.946;-60.652;2022-09-01T15:58:59;21.35;61.46
63899;HTU21D;50070;-32.946;-60.652;2022-09-01T16:01:27;21.16;62.11
63899;HTU21D;50070;-32.946;-60.652;2022-09-01T16:03:55;21.40;61.44